South Poultney, Vermont
Current Conditions -  °F | °C
As of 8:53 AM on Wednesday 28 Jan 2015 (Local Time) from KGFL Reporting Station
Overcast Overcast  
Wind Chill:   Ceiling: 9500
Heat Index:   Visibility: 10mi
Dew Point:   Wind: 5mph
Humidity: 73%   Direction: 80°E
Pressure: 30.1"   Gusts: NA
Location:  43.5323°N, 73.1932°W
Report Text: KGFL 281353Z AUTO 08004KT 10SM OVC095 M13/M17 A3010 RMK AO2 SLP208 T11281167
Loading
Personal Weather Stations






























Interactive Weather Map New forecast layout! Learn more

10-Day Weather Forecast

Advertisements
Track Severe Weather on mobile